createdAt,value
2018-05-18T00:00:26.006Z,8.76
2018-05-18T00:06:20.934Z,7.72
2018-05-18T00:12:15.900Z,9.6
2018-05-18T00:18:10.920Z,16.63
2018-05-18T00:24:05.927Z,9.98
2018-05-18T00:30:00.948Z,11.9
2018-05-18T00:35:55.932Z,13.47
2018-05-18T00:41:50.944Z,10.67
2018-05-18T00:47:45.965Z,9.28
2018-05-18T00:53:40.943Z,11.51
2018-05-18T00:59:35.922Z,14.13
2018-05-18T01:05:30.916Z,9
2018-05-18T01:11:25.960Z,7.92
2018-05-18T01:17:21.019Z,10.4
2018-05-18T01:23:15.974Z,8.15
2018-05-18T01:29:10.913Z,6.36
2018-05-18T01:35:05.946Z,4.61
2018-05-18T01:41:00.992Z,4.49
2018-05-18T01:46:55.973Z,9.07
2018-05-18T01:52:50.952Z,10.07
2018-05-18T01:58:46.030Z,8.86
2018-05-18T02:04:40.977Z,4.07
2018-05-18T02:10:36.011Z,9.58
2018-05-18T02:16:30.961Z,4.67
2018-05-18T02:22:25.940Z,4.05
2018-05-18T02:28:20.990Z,8.62
2018-05-18T02:34:16.029Z,9.87
2018-05-18T02:40:11.007Z,12.56
2018-05-18T02:46:06.058Z,15.75
2018-05-18T02:52:00.997Z,13.97
2018-05-18T02:57:55.999Z,17.39
2018-05-18T03:03:50.969Z,11.36
2018-05-18T03:09:45.951Z,7.99
2018-05-18T03:15:41.039Z,10.53
2018-05-18T03:21:36.043Z,13.17
2018-05-18T03:27:31.016Z,6.91
2018-05-18T03:33:25.981Z,4.59
2018-05-18T03:39:20.962Z,20.31
2018-05-18T03:45:16.256Z,36.39
2018-05-18T03:51:10.997Z,17.79
2018-05-18T03:57:06.029Z,9.88
2018-05-18T04:03:00.995Z,7.93
2018-05-18T04:08:56.021Z,17.94
2018-05-18T04:14:50.997Z,17.17
2018-05-18T04:20:45.978Z,8.12
2018-05-18T04:26:41.050Z,10.28
2018-05-18T04:32:35.985Z,11.5
2018-05-18T04:38:31.023Z,8.91
2018-05-18T04:44:26.028Z,11.19
2018-05-18T04:50:21.049Z,9.68
2018-05-18T04:56:16.001Z,11.13
2018-05-18T05:02:11.037Z,17.39
2018-05-18T05:08:06.022Z,10.22
2018-05-18T05:14:01.024Z,6.65
2018-05-18T05:19:56.012Z,7.67
2018-05-18T05:25:50.998Z,4
2018-05-18T05:31:46.033Z,8.61
2018-05-18T05:37:41.024Z,14.23
2018-05-18T05:43:36.084Z,27.33
2018-05-18T05:49:30.995Z,36.1
2018-05-18T05:55:25.987Z,32.77
2018-05-18T06:01:21.032Z,31.01
2018-05-18T06:07:16.010Z,30.48
2018-05-18T06:13:11.023Z,28.83
2018-05-18T06:19:05.988Z,22.73
2018-05-18T06:25:01.042Z,24.23
2018-05-18T06:30:56.020Z,27.77
2018-05-18T06:36:51.028Z,22.63
2018-05-18T06:42:46.014Z,24.15
2018-05-18T06:48:41.031Z,32.22
2018-05-18T06:54:36.037Z,29.85
2018-05-18T07:00:31.021Z,37.83
2018-05-18T07:06:26.057Z,26.43
2018-05-18T07:12:21.023Z,32.95
2018-05-18T07:18:16.004Z,28.48
2018-05-18T07:24:11.031Z,26.66
2018-05-18T07:30:06.057Z,31.54
2018-05-18T07:36:01.112Z,19.4
2018-05-18T07:41:56.098Z,17.99
2018-05-18T07:47:51.047Z,16.76
2018-05-18T07:53:46.025Z,19.56
2018-05-18T07:59:41.070Z,28.34
2018-05-18T08:05:36.044Z,14.79
2018-05-18T08:11:31.084Z,12.42
2018-05-18T08:17:26.037Z,12.79
2018-05-18T08:23:21.037Z,16.81
2018-05-18T08:29:16.053Z,13.7
2018-05-18T08:35:11.051Z,15.76
2018-05-18T08:41:06.067Z,14.7
2018-05-18T08:47:01.061Z,9.62
2018-05-18T08:52:56.042Z,6.27
2018-05-18T08:58:51.039Z,11.63
2018-05-18T09:04:46.047Z,12.5
2018-05-18T09:10:41.051Z,5.3
2018-05-18T09:16:36.049Z,5.31
2018-05-18T09:22:31.090Z,5.02
2018-05-18T09:28:26.094Z,3.77
2018-05-18T09:34:21.132Z,2.65
2018-05-18T09:40:16.074Z,2.81
2018-05-18T09:46:11.094Z,1.82
2018-05-18T09:52:06.111Z,1.99
2018-05-18T09:58:01.056Z,1.9
2018-05-18T10:03:56.138Z,3.71
2018-05-18T10:09:51.049Z,1.75
2018-05-18T10:15:46.137Z,3.42
2018-05-18T10:21:41.086Z,1.76
2018-05-18T10:27:36.109Z,5.17
2018-05-18T10:33:31.128Z,1.95
2018-05-18T10:39:26.084Z,2.41
2018-05-18T10:45:21.190Z,1.33
2018-05-18T10:51:16.076Z,1.99
2018-05-18T10:57:11.091Z,2.38
2018-05-18T11:03:06.091Z,2.65
2018-05-18T11:09:01.098Z,1.71
2018-05-18T11:14:56.102Z,1.08
2018-05-18T11:20:51.148Z,2.13
2018-05-18T11:26:46.127Z,1.32
2018-05-18T11:32:41.111Z,2.65
2018-05-18T11:38:36.141Z,3.59
2018-05-18T11:44:31.091Z,2.25
2018-05-18T11:50:26.093Z,2.65
2018-05-18T11:56:21.144Z,2.2
2018-05-18T12:02:16.121Z,1.29
2018-05-18T12:08:11.190Z,4.43
2018-05-18T12:14:06.190Z,2.09
2018-05-18T12:20:01.130Z,3.25
2018-05-18T12:25:56.150Z,1.88
2018-05-18T12:31:51.205Z,1.66
2018-05-18T12:37:46.148Z,7.68
2018-05-18T12:43:41.131Z,4.1
2018-05-18T12:49:36.171Z,1.42
2018-05-18T12:55:31.137Z,3.9
2018-05-18T13:01:26.823Z,1.56
2018-05-18T13:07:21.109Z,1.25
2018-05-18T13:13:16.127Z,1.81
2018-05-18T13:19:11.150Z,3.22
2018-05-18T13:25:06.287Z,1.38
2018-05-18T13:31:01.166Z,1.35
2018-05-18T13:36:56.141Z,2.49
2018-05-18T13:42:51.146Z,1.24
2018-05-18T13:48:46.141Z,2.28
2018-05-18T13:54:41.181Z,2.65
2018-05-18T14:00:36.178Z,1.62
2018-05-18T14:06:31.322Z,1.2
2018-05-18T14:12:26.177Z,1.53
2018-05-18T14:18:21.176Z,1.93
2018-05-18T14:24:16.232Z,1.77
2018-05-18T14:30:11.181Z,2.5
2018-05-18T14:36:06.216Z,2.73
2018-05-18T14:42:01.163Z,1.46
2018-05-18T14:47:56.205Z,1.36
2018-05-18T14:53:51.209Z,3.3
2018-05-18T14:59:46.204Z,1.53
2018-05-18T15:05:41.290Z,1.92
2018-05-18T15:11:36.224Z,2.8
2018-05-18T15:17:31.210Z,3.48
2018-05-18T15:23:26.246Z,4.42
2018-05-18T15:29:21.233Z,1.42
2018-05-18T15:35:16.213Z,1.76
2018-05-18T15:41:11.237Z,1.66
2018-05-18T15:47:06.279Z,1.09
2018-05-18T15:53:01.213Z,1.62
2018-05-18T15:58:56.222Z,3.59
2018-05-18T16:04:51.546Z,2.27
2018-05-18T16:10:46.235Z,2.34
2018-05-18T16:16:41.361Z,1.85
2018-05-18T16:22:36.274Z,1.38
2018-05-18T16:28:31.457Z,2.8
2018-05-18T16:34:26.223Z,1.84
2018-05-18T16:40:21.263Z,2.69
2018-05-18T16:46:16.235Z,1.7
2018-05-18T16:52:11.240Z,2.14
2018-05-18T16:58:06.304Z,3.85
2018-05-18T17:04:01.254Z,2.07
2018-05-18T17:09:56.311Z,3.02
2018-05-18T17:15:51.251Z,3.31
2018-05-18T17:21:46.271Z,3.51
2018-05-18T17:27:41.252Z,2.55
2018-05-18T17:33:36.270Z,2.88
2018-05-18T17:39:31.262Z,2.08
2018-05-18T17:45:26.312Z,2.84
2018-05-18T17:51:21.271Z,1.77
2018-05-18T17:57:16.267Z,1.84
2018-05-18T18:03:11.257Z,2.39
2018-05-18T18:09:06.327Z,6.05
2018-05-18T18:15:01.326Z,4.12
2018-05-18T18:20:56.281Z,2.39
2018-05-18T18:26:51.323Z,3.27
2018-05-18T18:32:46.343Z,2.1
2018-05-18T18:38:41.371Z,4.65
2018-05-18T18:44:36.309Z,2.4
2018-05-18T18:50:31.278Z,4.84
2018-05-18T18:56:26.255Z,3.37
2018-05-18T19:02:21.257Z,3.93
2018-05-18T19:08:16.317Z,5.41
2018-05-18T19:14:11.295Z,3.61
2018-05-18T19:20:06.299Z,4.17
2018-05-18T19:26:01.285Z,2.34
2018-05-18T19:31:56.308Z,3.04
2018-05-18T19:37:51.283Z,4
2018-05-18T19:43:46.305Z,3.71
2018-05-18T19:49:41.306Z,3.36
2018-05-18T19:55:36.317Z,4.71
2018-05-18T20:01:31.308Z,4.94
2018-05-18T20:07:26.337Z,6.8
2018-05-18T20:13:21.343Z,4.09
2018-05-18T20:19:16.327Z,3.16
2018-05-18T20:25:11.305Z,6.03
2018-05-18T20:31:06.295Z,6.76
2018-05-18T20:37:01.347Z,4.92
2018-05-18T20:42:56.325Z,3.45
2018-05-18T20:48:51.312Z,6.45
2018-05-18T20:54:46.367Z,5.18
2018-05-18T21:00:41.296Z,5.56
2018-05-18T21:06:36.304Z,5.61
2018-05-18T21:12:31.366Z,5.43
2018-05-18T21:18:26.412Z,5.89
2018-05-18T21:24:21.391Z,6.32
2018-05-18T21:30:16.303Z,6.59
2018-05-18T21:36:11.344Z,5.41
2018-05-18T21:42:06.351Z,4.85
2018-05-18T21:48:01.361Z,4.33
2018-05-18T21:53:56.339Z,8.65
2018-05-18T21:59:51.294Z,4.93
2018-05-18T22:05:46.349Z,8.61
2018-05-18T22:11:41.346Z,4.5
2018-05-18T22:17:36.384Z,5.79
2018-05-18T22:23:31.319Z,5.78
2018-05-18T22:29:26.318Z,5.2
2018-05-18T22:35:21.327Z,5.51
2018-05-18T22:41:16.358Z,4.37
2018-05-18T22:47:11.349Z,6.19
2018-05-18T22:53:06.336Z,3.87
2018-05-18T22:59:01.357Z,3.96
2018-05-18T23:04:56.363Z,6.86
2018-05-18T23:10:51.329Z,4.29
2018-05-18T23:16:46.362Z,6.81
2018-05-18T23:22:41.365Z,5.2
2018-05-18T23:28:36.349Z,3.91
2018-05-18T23:34:31.336Z,5
2018-05-18T23:40:26.345Z,7.53
2018-05-18T23:46:21.372Z,5.31
2018-05-18T23:52:16.413Z,5.69
2018-05-18T23:58:11.368Z,6.58
